createdAt,value
2023-03-14T00:00:04.000Z,0
2023-03-14T00:01:20.000Z,0
2023-03-14T00:02:35.000Z,0
2023-03-14T00:03:52.000Z,0
2023-03-14T00:05:08.000Z,0
2023-03-14T00:06:24.000Z,0
2023-03-14T00:07:40.000Z,0
2023-03-14T00:08:57.000Z,0
2023-03-14T00:10:13.000Z,0
2023-03-14T00:11:29.000Z,0
2023-03-14T00:12:46.000Z,0
2023-03-14T00:14:02.000Z,0
2023-03-14T00:15:18.000Z,0
2023-03-14T00:16:34.000Z,0
2023-03-14T00:17:51.000Z,0
2023-03-14T00:19:06.000Z,0
2023-03-14T00:20:22.000Z,0
2023-03-14T00:21:39.000Z,0
2023-03-14T00:22:55.000Z,0
2023-03-14T00:24:11.914Z,0
2023-03-14T00:25:27.000Z,0
2023-03-14T00:26:44.000Z,0
2023-03-14T00:28:00.000Z,0
2023-03-14T00:29:16.000Z,0
2023-03-14T00:30:33.000Z,0
2023-03-14T00:31:49.000Z,0
2023-03-14T00:33:05.000Z,0
2023-03-14T00:34:21.000Z,0
2023-03-14T00:35:37.000Z,0
2023-03-14T00:36:52.000Z,0
2023-03-14T00:38:07.000Z,0
2023-03-14T00:39:23.000Z,0
2023-03-14T00:40:39.716Z,0
2023-03-14T00:41:55.000Z,0
2023-03-14T00:43:12.000Z,0
2023-03-14T00:44:28.000Z,0
2023-03-14T00:45:44.000Z,0
2023-03-14T00:47:00.000Z,0
2023-03-14T00:48:17.000Z,0
2023-03-14T00:49:33.000Z,0
2023-03-14T00:50:49.000Z,0
2023-03-14T00:52:06.000Z,0
2023-03-14T00:53:22.000Z,0
2023-03-14T00:54:38.000Z,0
2023-03-14T00:55:53.000Z,0
2023-03-14T00:57:10.000Z,0
2023-03-14T00:58:26.000Z,0
2023-03-14T00:59:42.000Z,0
2023-03-14T01:00:59.000Z,0
2023-03-14T01:02:15.000Z,0
2023-03-14T01:03:31.000Z,0
2023-03-14T01:04:46.000Z,0
2023-03-14T01:06:02.000Z,0
2023-03-14T01:07:18.000Z,0
2023-03-14T01:08:33.000Z,0
2023-03-14T01:09:49.000Z,0
2023-03-14T01:11:05.000Z,0
2023-03-14T01:12:22.013Z,0
2023-03-14T01:13:38.000Z,0
2023-03-14T01:14:54.000Z,0
2023-03-14T01:16:10.000Z,0
2023-03-14T01:17:26.000Z,0
2023-03-14T01:18:43.432Z,0
2023-03-14T01:19:59.000Z,0
2023-03-14T01:21:15.000Z,0
2023-03-14T01:22:32.318Z,0
2023-03-14T01:23:48.000Z,0
2023-03-14T01:25:04.000Z,0
2023-03-14T01:26:19.000Z,0
2023-03-14T01:27:36.000Z,0
2023-03-14T01:28:52.000Z,0
2023-03-14T01:30:08.000Z,0
2023-03-14T01:31:25.000Z,0
2023-03-14T01:32:41.000Z,0
2023-03-14T01:33:57.000Z,0
2023-03-14T01:35:12.000Z,0
2023-03-14T01:36:28.000Z,0
2023-03-14T01:37:44.000Z,0
2023-03-14T01:38:59.000Z,0
2023-03-14T01:40:15.000Z,0
2023-03-14T01:41:31.000Z,0
2023-03-14T01:42:47.000Z,0
2023-03-14T01:44:04.000Z,0
2023-03-14T01:45:20.000Z,0
2023-03-14T01:46:36.000Z,0
2023-03-14T01:47:52.000Z,0
2023-03-14T01:49:09.000Z,0
2023-03-14T01:50:25.000Z,0
2023-03-14T01:51:41.000Z,0
2023-03-14T01:52:58.000Z,0
2023-03-14T01:54:14.000Z,0
2023-03-14T01:55:30.000Z,0
2023-03-14T01:58:02.000Z,0
2023-03-14T01:59:18.000Z,0
2023-03-14T02:00:34.000Z,0
2023-03-14T02:01:51.000Z,0
2023-03-14T02:03:07.000Z,0
2023-03-14T02:04:23.000Z,0
2023-03-14T02:05:39.000Z,0
2023-03-14T02:06:56.000Z,0
2023-03-14T02:08:12.000Z,0
2023-03-14T02:09:28.000Z,0
2023-03-14T02:10:45.000Z,0
2023-03-14T02:12:01.000Z,0
2023-03-14T02:13:16.000Z,0
2023-03-14T02:14:32.000Z,0
2023-03-14T02:15:49.000Z,0
2023-03-14T02:17:05.000Z,0
2023-03-14T02:18:21.000Z,0
2023-03-14T02:19:38.000Z,0
2023-03-14T02:20:54.000Z,0
2023-03-14T02:22:09.000Z,0
2023-03-14T02:23:25.000Z,0
2023-03-14T02:24:40.000Z,0
2023-03-14T02:25:55.000Z,0
2023-03-14T02:27:11.000Z,0
2023-03-14T02:28:28.000Z,0
2023-03-14T02:29:44.000Z,0
2023-03-14T02:31:00.000Z,0
2023-03-14T02:32:17.000Z,0
2023-03-14T02:33:33.000Z,0
2023-03-14T02:36:05.000Z,0
2023-03-14T02:37:22.493Z,0
2023-03-14T02:38:38.000Z,0
2023-03-14T02:39:54.000Z,0
2023-03-14T02:41:11.000Z,0
2023-03-14T02:42:26.000Z,0
2023-03-14T02:43:42.000Z,0
2023-03-14T02:44:58.000Z,0
2023-03-14T02:46:15.000Z,0
2023-03-14T02:47:31.000Z,0
2023-03-14T02:48:47.000Z,0
2023-03-14T02:50:04.000Z,0
2023-03-14T02:51:20.000Z,0
2023-03-14T02:52:36.000Z,0
2023-03-14T02:53:52.000Z,0
2023-03-14T02:55:09.000Z,0
2023-03-14T02:56:25.000Z,0
2023-03-14T02:57:41.000Z,0
2023-03-14T02:58:57.406Z,0
2023-03-14T03:00:13.000Z,0
2023-03-14T03:01:29.000Z,0
2023-03-14T03:02:46.242Z,0
2023-03-14T03:04:02.547Z,0
2023-03-14T03:05:18.000Z,0
2023-03-14T03:06:34.000Z,0
2023-03-14T03:07:51.000Z,0
2023-03-14T03:09:07.000Z,0
2023-03-14T03:10:23.000Z,0
2023-03-14T03:11:40.000Z,0
2023-03-14T03:12:56.000Z,0
2023-03-14T03:14:12.000Z,0
2023-03-14T03:15:27.000Z,0
2023-03-14T03:16:44.000Z,0
2023-03-14T03:18:00.000Z,0
2023-03-14T03:19:16.000Z,0
2023-03-14T03:20:33.000Z,0
2023-03-14T03:21:49.000Z,0
2023-03-14T03:23:05.000Z,0
2023-03-14T03:24:21.000Z,0
2023-03-14T03:25:38.445Z,0
2023-03-14T03:26:54.000Z,0
2023-03-14T03:28:10.000Z,0
2023-03-14T03:29:26.000Z,0
2023-03-14T03:30:42.000Z,0
2023-03-14T03:31:58.000Z,0
2023-03-14T03:33:14.000Z,0
2023-03-14T03:34:31.000Z,0
2023-03-14T03:35:47.000Z,0
2023-03-14T03:37:03.000Z,0
2023-03-14T03:38:20.353Z,0
2023-03-14T03:39:36.000Z,0
2023-03-14T03:40:52.000Z,0
2023-03-14T03:42:08.000Z,0
2023-03-14T03:43:25.000Z,0
2023-03-14T03:44:41.000Z,0
2023-03-14T03:45:56.000Z,0
2023-03-14T03:47:13.000Z,0
2023-03-14T03:48:29.000Z,0
2023-03-14T03:49:45.947Z,0
2023-03-14T03:51:02.235Z,0
2023-03-14T03:52:18.000Z,0
2023-03-14T03:53:34.000Z,0
2023-03-14T03:54:50.000Z,0
2023-03-14T03:56:07.000Z,0
2023-03-14T03:57:23.000Z,0
2023-03-14T03:58:39.000Z,0
2023-03-14T03:59:56.000Z,0
2023-03-14T04:01:12.533Z,0
2023-03-14T04:02:27.000Z,0
2023-03-14T04:03:43.000Z,0
2023-03-14T04:05:00.000Z,0
2023-03-14T04:06:16.000Z,0
2023-03-14T04:07:32.000Z,0
2023-03-14T04:08:49.000Z,0
2023-03-14T04:10:05.000Z,0
2023-03-14T04:11:21.000Z,0
2023-03-14T04:12:37.000Z,0
2023-03-14T04:13:54.000Z,0
2023-03-14T04:15:10.000Z,0
2023-03-14T04:16:26.000Z,0
2023-03-14T04:17:43.000Z,0
2023-03-14T04:18:58.000Z,0
2023-03-14T04:20:14.000Z,0
2023-03-14T04:21:30.000Z,0
2023-03-14T04:22:47.432Z,0
2023-03-14T04:24:03.000Z,0
2023-03-14T04:25:19.000Z,0
2023-03-14T04:26:36.000Z,0
2023-03-14T04:27:52.000Z,0
2023-03-14T04:29:08.891Z,0
2023-03-14T04:30:24.000Z,0
2023-03-14T04:31:41.468Z,0
2023-03-14T04:32:57.000Z,0
2023-03-14T04:34:13.000Z,0
2023-03-14T04:35:29.000Z,0
2023-03-14T04:36:45.000Z,0
2023-03-14T04:38:01.000Z,0
2023-03-14T04:39:17.000Z,0
2023-03-14T04:40:34.000Z,0
2023-03-14T04:41:50.000Z,0
2023-03-14T04:43:06.000Z,0
2023-03-14T04:44:23.000Z,0
2023-03-14T04:45:39.000Z,0
2023-03-14T04:46:55.000Z,0
2023-03-14T04:48:12.197Z,0
2023-03-14T04:49:28.000Z,0
2023-03-14T04:50:44.000Z,0
2023-03-14T04:52:00.105Z,0
2023-03-14T04:53:16.000Z,0
2023-03-14T04:54:32.671Z,0
2023-03-14T04:55:48.000Z,0
2023-03-14T04:57:04.000Z,0
2023-03-14T04:58:21.000Z,0
2023-03-14T04:59:37.000Z,0
2023-03-14T05:00:53.000Z,0
2023-03-14T05:02:10.379Z,0
2023-03-14T05:03:26.000Z,0
2023-03-14T05:04:42.000Z,0
2023-03-14T05:05:59.000Z,0
2023-03-14T05:07:15.000Z,0
2023-03-14T05:08:30.000Z,0
2023-03-14T05:09:46.000Z,0
2023-03-14T05:11:03.000Z,0
2023-03-14T05:12:18.000Z,0
2023-03-14T05:13:33.000Z,0
2023-03-14T05:14:50.000Z,0
2023-03-14T05:16:05.000Z,0
2023-03-14T05:17:20.000Z,0
2023-03-14T05:18:36.000Z,0
2023-03-14T05:19:53.000Z,0
2023-03-14T05:21:09.000Z,0
2023-03-14T05:22:25.000Z,0
2023-03-14T05:23:41.000Z,0
2023-03-14T05:24:58.000Z,0
2023-03-14T05:26:14.705Z,0
2023-03-14T05:27:30.000Z,0
2023-03-14T05:28:46.000Z,0
2023-03-14T05:30:03.000Z,0
2023-03-14T05:31:19.648Z,0
2023-03-14T05:32:35.000Z,0
2023-03-14T05:33:50.000Z,0
2023-03-14T05:35:07.000Z,0
2023-03-14T05:36:23.000Z,0
2023-03-14T05:37:39.000Z,0
2023-03-14T05:38:55.000Z,0
2023-03-14T05:40:12.000Z,0
2023-03-14T05:41:28.527Z,0
2023-03-14T05:42:44.000Z,0
2023-03-14T05:44:00.000Z,0
2023-03-14T05:45:16.000Z,0
2023-03-14T05:46:33.450Z,0
2023-03-14T05:47:49.000Z,0
2023-03-14T05:49:05.000Z,0
2023-03-14T05:50:20.000Z,0
2023-03-14T05:51:37.000Z,0
2023-03-14T05:52:53.000Z,0
2023-03-14T05:54:09.000Z,5
2023-03-14T05:55:25.000Z,5
2023-03-14T05:56:42.000Z,5
2023-03-14T05:57:58.572Z,5
2023-03-14T05:59:14.807Z,5
2023-03-14T06:00:30.000Z,5
2023-03-14T06:01:47.261Z,5
2023-03-14T06:03:03.000Z,5
2023-03-14T06:04:19.000Z,5
2023-03-14T06:05:35.000Z,5
2023-03-14T06:06:51.000Z,5
2023-03-14T06:08:07.000Z,5
2023-03-14T06:09:23.000Z,5
2023-03-14T06:10:39.000Z,5
2023-03-14T06:11:56.164Z,5
2023-03-14T06:13:12.366Z,5
2023-03-14T06:14:28.618Z,5
2023-03-14T06:15:44.000Z,5
2023-03-14T06:17:01.095Z,5
2023-03-14T06:18:17.000Z,5
2023-03-14T06:19:33.000Z,5
2023-03-14T06:20:49.000Z,5
2023-03-14T06:22:05.000Z,11
2023-03-14T06:23:22.000Z,11
2023-03-14T06:24:37.499Z,11
2023-03-14T06:25:53.000Z,11
2023-03-14T06:27:09.000Z,11
2023-03-14T06:28:25.000Z,5
2023-03-14T06:29:42.000Z,5
2023-03-14T06:30:58.000Z,5
2023-03-14T06:32:14.000Z,5
2023-03-14T06:33:30.000Z,5
2023-03-14T06:34:47.363Z,5
2023-03-14T06:36:03.000Z,5
2023-03-14T06:37:19.000Z,5
2023-03-14T06:38:35.000Z,5
2023-03-14T06:39:52.000Z,11
2023-03-14T06:41:07.000Z,16
2023-03-14T06:42:23.000Z,22
2023-03-14T06:43:39.000Z,16
2023-03-14T06:44:56.000Z,16
2023-03-14T06:46:12.000Z,16
2023-03-14T06:47:28.000Z,22
2023-03-14T06:48:44.955Z,16
2023-03-14T06:50:00.000Z,22
2023-03-14T06:51:17.411Z,16
2023-03-14T06:52:33.000Z,16
2023-03-14T06:53:49.000Z,22
2023-03-14T06:55:05.000Z,33
2023-03-14T06:56:22.000Z,33
2023-03-14T06:57:37.000Z,39
2023-03-14T06:58:53.000Z,56
2023-03-14T07:00:09.000Z,45
2023-03-14T07:01:26.298Z,22
2023-03-14T07:02:42.000Z,16
2023-03-14T07:03:58.000Z,11
2023-03-14T07:05:14.991Z,11
2023-03-14T07:06:30.000Z,22
2023-03-14T07:07:47.000Z,28
2023-03-14T07:09:03.000Z,50
2023-03-14T07:10:19.000Z,50
2023-03-14T07:11:35.000Z,33
2023-03-14T07:12:52.398Z,22
2023-03-14T07:15:23.000Z,16
2023-03-14T07:16:39.000Z,22
2023-03-14T07:17:56.000Z,28
2023-03-14T07:19:12.000Z,22
2023-03-14T07:20:28.818Z,11
2023-03-14T07:21:44.000Z,16
2023-03-14T07:23:01.000Z,22
2023-03-14T07:24:17.000Z,22
2023-03-14T07:25:33.759Z,16
2023-03-14T07:28:05.000Z,16
2023-03-14T07:29:22.000Z,16
2023-03-14T07:30:37.000Z,28
2023-03-14T07:31:53.000Z,22
2023-03-14T07:33:10.159Z,16
2023-03-14T07:34:26.000Z,28
2023-03-14T07:35:42.628Z,28
2023-03-14T07:36:58.000Z,28
2023-03-14T07:38:14.000Z,28
2023-03-14T07:39:31.323Z,33
2023-03-14T07:40:47.000Z,22
2023-03-14T07:42:03.000Z,33
2023-03-14T07:43:20.046Z,28
2023-03-14T07:44:35.000Z,28
2023-03-14T07:45:51.000Z,39
2023-03-14T07:47:07.000Z,56
2023-03-14T07:48:23.000Z,84
2023-03-14T07:49:39.000Z,67
2023-03-14T07:50:56.468Z,50
2023-03-14T07:52:12.000Z,45
2023-03-14T07:53:28.000Z,50
2023-03-14T07:54:44.000Z,56
2023-03-14T07:56:01.000Z,56
2023-03-14T07:57:17.000Z,50
2023-03-14T07:58:33.839Z,45
2023-03-14T07:59:49.000Z,45
2023-03-14T08:01:05.000Z,45
2023-03-14T08:02:21.579Z,45
2023-03-14T08:03:37.000Z,45
2023-03-14T08:04:53.000Z,106
2023-03-14T08:06:10.280Z,129
2023-03-14T08:07:26.000Z,106
2023-03-14T08:08:42.000Z,123
2023-03-14T08:09:58.000Z,236
2023-03-14T08:11:14.000Z,123
2023-03-14T08:12:30.000Z,118
2023-03-14T08:13:45.716Z,112
2023-03-14T08:15:01.000Z,78
2023-03-14T08:16:17.000Z,61
2023-03-14T08:17:34.000Z,50
2023-03-14T08:18:50.000Z,56
2023-03-14T08:20:05.000Z,56
2023-03-14T08:21:20.000Z,67
2023-03-14T08:22:37.000Z,56
2023-03-14T08:23:53.000Z,45
2023-03-14T08:25:09.000Z,45
2023-03-14T08:26:25.000Z,56
2023-03-14T08:27:42.000Z,45
2023-03-14T08:28:58.638Z,45
2023-03-14T08:30:14.000Z,56
2023-03-14T08:31:31.008Z,73
2023-03-14T08:32:47.000Z,84
2023-03-14T08:34:03.000Z,78
2023-03-14T08:35:19.000Z,56
2023-03-14T08:36:35.961Z,56
2023-03-14T08:37:50.000Z,45
2023-03-14T08:39:07.000Z,50
2023-03-14T08:40:23.682Z,61
2023-03-14T08:41:39.000Z,73
2023-03-14T08:42:56.150Z,78
2023-03-14T08:44:12.386Z,61
2023-03-14T08:45:28.000Z,84
2023-03-14T08:46:44.000Z,84
2023-03-14T08:48:00.000Z,101
2023-03-14T08:49:17.000Z,84
2023-03-14T08:50:33.000Z,67
2023-03-14T08:51:49.783Z,67
2023-03-14T08:53:05.000Z,56
2023-03-14T08:54:21.000Z,56
2023-03-14T08:55:37.497Z,56
2023-03-14T08:56:53.000Z,50
2023-03-14T08:58:09.000Z,50
2023-03-14T08:59:26.175Z,45
2023-03-14T09:00:42.000Z,50
2023-03-14T09:01:58.000Z,45
2023-03-14T09:03:14.000Z,61
2023-03-14T09:04:30.000Z,61
2023-03-14T09:07:03.588Z,33
2023-03-14T09:08:19.862Z,33
2023-03-14T09:09:36.041Z,22
2023-03-14T09:10:51.000Z,28
2023-03-14T09:12:07.000Z,50
2023-03-14T09:13:23.000Z,45
2023-03-14T09:14:40.013Z,50
2023-03-14T09:15:55.000Z,67
2023-03-14T09:17:12.000Z,90
2023-03-14T09:18:28.000Z,106
2023-03-14T09:19:44.000Z,101
2023-03-14T09:21:01.176Z,106
2023-03-14T09:23:33.000Z,95
2023-03-14T09:24:49.000Z,78
2023-03-14T09:26:06.117Z,78
2023-03-14T09:27:21.000Z,78
2023-03-14T09:28:37.000Z,67
2023-03-14T09:29:53.811Z,56
2023-03-14T09:31:09.000Z,39
2023-03-14T09:32:26.000Z,39
2023-03-14T09:34:58.000Z,22
2023-03-14T09:36:14.000Z,28
2023-03-14T09:37:31.229Z,33
2023-03-14T09:38:47.000Z,33
2023-03-14T09:40:03.000Z,33
2023-03-14T09:41:19.000Z,11
2023-03-14T09:42:36.166Z,11
2023-03-14T09:43:51.000Z,16
2023-03-14T09:45:07.642Z,22
2023-03-14T09:46:23.000Z,22
2023-03-14T09:47:39.000Z,28
2023-03-14T09:48:56.000Z,33
2023-03-14T09:50:12.000Z,33
2023-03-14T09:51:28.000Z,33
2023-03-14T09:52:45.033Z,33
2023-03-14T09:54:01.000Z,39
2023-03-14T09:55:17.647Z,39
2023-03-14T09:56:33.000Z,45
2023-03-14T09:57:49.000Z,50
2023-03-14T09:59:05.000Z,56
2023-03-14T10:00:21.467Z,61
2023-03-14T10:01:37.000Z,61
2023-03-14T10:02:53.000Z,61
2023-03-14T10:04:09.000Z,61
2023-03-14T10:05:26.000Z,56
2023-03-14T10:06:42.000Z,45
2023-03-14T10:07:58.859Z,45
2023-03-14T10:09:14.000Z,45
2023-03-14T10:10:31.000Z,50
2023-03-14T10:11:47.000Z,50
2023-03-14T10:13:03.000Z,45
2023-03-14T10:14:19.000Z,50
2023-03-14T10:15:36.469Z,39
2023-03-14T10:16:51.000Z,28
2023-03-14T10:18:07.000Z,28
2023-03-14T10:19:23.000Z,28
2023-03-14T10:20:39.000Z,33
2023-03-14T10:21:56.000Z,39
2023-03-14T10:23:12.658Z,45
2023-03-14T10:25:44.000Z,28
2023-03-14T10:27:01.000Z,28
2023-03-14T10:28:17.000Z,39
2023-03-14T10:29:33.000Z,50
2023-03-14T10:32:06.000Z,78
2023-03-14T10:33:21.554Z,90
2023-03-14T10:34:37.000Z,112
2023-03-14T10:35:54.022Z,118
2023-03-14T10:37:10.000Z,135
2023-03-14T10:38:26.494Z,135
2023-03-14T10:39:42.000Z,129
2023-03-14T10:40:58.966Z,129
2023-03-14T10:42:14.000Z,129
2023-03-14T10:43:31.000Z,140
2023-03-14T10:44:47.000Z,174
2023-03-14T10:46:03.902Z,174
2023-03-14T10:47:19.000Z,219
2023-03-14T10:48:36.368Z,180
2023-03-14T10:51:07.000Z,140
2023-03-14T10:52:22.000Z,157
2023-03-14T10:53:38.361Z,146
2023-03-14T10:54:54.561Z,146
2023-03-14T10:56:10.000Z,135
2023-03-14T10:57:26.000Z,106
2023-03-14T10:58:43.000Z,84
2023-03-14T10:59:59.000Z,67
2023-03-14T11:01:15.744Z,73
2023-03-14T11:02:31.963Z,95
2023-03-14T11:03:48.240Z,123
2023-03-14T11:05:04.000Z,163
2023-03-14T11:06:19.000Z,163
2023-03-14T11:07:34.000Z,168
2023-03-14T11:08:51.183Z,146
2023-03-14T11:10:07.000Z,140
2023-03-14T11:11:23.000Z,135
2023-03-14T11:12:39.000Z,129
2023-03-14T11:13:55.000Z,118
2023-03-14T11:16:28.583Z,123
2023-03-14T11:17:44.000Z,118
2023-03-14T11:19:00.000Z,129
2023-03-14T11:20:17.000Z,129
2023-03-14T11:21:33.000Z,123
2023-03-14T11:22:49.000Z,135
2023-03-14T11:24:05.014Z,135
2023-03-14T11:25:20.000Z,129
2023-03-14T11:26:37.000Z,123
2023-03-14T11:27:53.718Z,168
2023-03-14T11:29:09.953Z,112
2023-03-14T11:30:25.000Z,90
2023-03-14T11:31:42.420Z,73
2023-03-14T11:32:58.000Z,61
2023-03-14T11:34:14.000Z,61
2023-03-14T11:35:30.000Z,67
2023-03-14T11:36:47.000Z,56
2023-03-14T11:38:03.000Z,50
2023-03-14T11:39:19.820Z,56
2023-03-14T11:40:35.080Z,61
2023-03-14T11:43:06.000Z,90
2023-03-14T11:44:22.000Z,185
2023-03-14T11:45:37.000Z,180
2023-03-14T11:46:53.301Z,118
2023-03-14T11:48:09.000Z,84
2023-03-14T11:49:25.000Z,67
2023-03-14T11:50:41.000Z,73
2023-03-14T11:51:57.000Z,67
2023-03-14T11:53:14.473Z,118
2023-03-14T11:54:30.685Z,163
2023-03-14T11:55:46.000Z,196
2023-03-14T11:57:02.000Z,185
2023-03-14T11:58:19.000Z,157
2023-03-14T11:59:34.000Z,157
2023-03-14T12:00:50.000Z,168
2023-03-14T12:02:07.119Z,163
2023-03-14T12:03:23.334Z,163
2023-03-14T12:04:39.000Z,157
2023-03-14T12:05:55.817Z,157
2023-03-14T12:07:11.000Z,157
2023-03-14T12:08:28.000Z,157
2023-03-14T12:09:44.519Z,174
2023-03-14T12:11:00.000Z,180
2023-03-14T12:12:16.000Z,208
2023-03-14T12:13:32.000Z,219
2023-03-14T12:14:49.000Z,208
2023-03-14T12:16:04.000Z,180
2023-03-14T12:17:20.931Z,151
2023-03-14T12:18:37.176Z,135
2023-03-14T12:19:53.000Z,112
2023-03-14T12:21:09.620Z,95
2023-03-14T12:22:25.000Z,84
2023-03-14T12:23:41.000Z,56
2023-03-14T12:24:58.373Z,56
2023-03-14T12:26:14.000Z,67
2023-03-14T12:27:30.000Z,101
2023-03-14T12:28:46.000Z,118
2023-03-14T12:30:03.000Z,135
2023-03-14T12:31:19.487Z,140
2023-03-14T12:32:34.743Z,135
2023-03-14T12:33:50.000Z,135
2023-03-14T12:35:06.000Z,146
2023-03-14T12:36:23.000Z,146
2023-03-14T12:37:39.000Z,140
2023-03-14T12:38:55.000Z,135
2023-03-14T12:40:12.177Z,140
2023-03-14T12:41:28.000Z,174
2023-03-14T12:42:44.000Z,219
2023-03-14T12:44:00.000Z,219
2023-03-14T12:45:16.000Z,196
2023-03-14T12:46:33.000Z,208
2023-03-14T12:47:49.544Z,219
2023-03-14T12:49:04.840Z,427
2023-03-14T12:50:20.000Z,219
2023-03-14T12:51:37.000Z,208
2023-03-14T12:52:53.000Z,157
2023-03-14T12:54:09.000Z,151
2023-03-14T12:55:25.000Z,151
2023-03-14T12:56:41.000Z,123
2023-03-14T12:57:58.000Z,84
2023-03-14T12:59:14.687Z,78
2023-03-14T13:00:30.000Z,84
2023-03-14T13:01:46.000Z,101
2023-03-14T13:03:03.384Z,123
2023-03-14T13:04:19.000Z,135
2023-03-14T13:05:34.000Z,140
2023-03-14T13:06:50.000Z,140
2023-03-14T13:08:07.000Z,140
2023-03-14T13:09:23.564Z,135
2023-03-14T13:10:39.779Z,135
2023-03-14T13:11:55.000Z,140
2023-03-14T13:13:12.000Z,168
2023-03-14T13:14:28.000Z,163
2023-03-14T13:15:44.000Z,163
2023-03-14T13:17:00.000Z,157
2023-03-14T13:18:16.000Z,151
2023-03-14T13:19:33.426Z,163
2023-03-14T13:20:49.000Z,163
2023-03-14T13:22:04.914Z,185
2023-03-14T13:23:20.000Z,168
2023-03-14T13:24:37.000Z,157
2023-03-14T13:25:53.630Z,146
2023-03-14T13:27:09.838Z,140
2023-03-14T13:28:25.000Z,140
2023-03-14T13:29:42.000Z,129
2023-03-14T13:30:58.543Z,129
2023-03-14T13:32:14.000Z,118
2023-03-14T13:33:30.000Z,90
2023-03-14T13:34:46.000Z,84
2023-03-14T13:36:03.000Z,84
2023-03-14T13:37:19.000Z,73
2023-03-14T13:38:34.000Z,56
2023-03-14T13:39:51.197Z,50
2023-03-14T13:41:07.414Z,45
2023-03-14T13:42:23.000Z,45
2023-03-14T13:43:39.000Z,61
2023-03-14T13:44:55.000Z,90
2023-03-14T13:46:12.000Z,123
2023-03-14T13:47:28.000Z,146
2023-03-14T13:48:44.000Z,219
2023-03-14T13:50:00.000Z,185
2023-03-14T13:51:17.408Z,202
2023-03-14T13:52:33.000Z,202
2023-03-14T13:53:49.748Z,343
2023-03-14T13:55:04.000Z,208
2023-03-14T13:57:37.000Z,174
2023-03-14T13:58:53.000Z,146
2023-03-14T14:00:09.946Z,129
2023-03-14T14:01:25.000Z,118
2023-03-14T14:02:42.000Z,112
2023-03-14T14:03:58.626Z,101
2023-03-14T14:05:14.000Z,123
2023-03-14T14:06:30.000Z,140
2023-03-14T14:07:47.000Z,140
2023-03-14T14:09:03.559Z,151
2023-03-14T14:10:19.852Z,219
2023-03-14T14:11:36.049Z,202
2023-03-14T14:12:51.000Z,185
2023-03-14T14:14:07.000Z,168
2023-03-14T14:15:23.000Z,157
2023-03-14T14:16:39.000Z,151
2023-03-14T14:17:55.000Z,151
2023-03-14T14:19:12.000Z,180
2023-03-14T14:20:28.000Z,180
2023-03-14T14:21:44.000Z,180
2023-03-14T14:23:01.169Z,151
2023-03-14T14:24:17.000Z,180
2023-03-14T14:25:33.000Z,191
2023-03-14T14:26:49.861Z,185
2023-03-14T14:28:05.000Z,180
2023-03-14T14:29:21.000Z,174
2023-03-14T14:30:37.000Z,180
2023-03-14T14:31:53.000Z,163
2023-03-14T14:33:09.000Z,146
2023-03-14T14:34:26.288Z,135
2023-03-14T14:35:42.000Z,129
2023-03-14T14:36:58.000Z,112
2023-03-14T14:38:14.000Z,106
2023-03-14T14:39:30.000Z,101
2023-03-14T14:40:47.000Z,90
2023-03-14T14:42:03.670Z,90
2023-03-14T14:43:19.000Z,90
2023-03-14T14:44:35.000Z,90
2023-03-14T14:45:51.000Z,95
2023-03-14T14:47:07.000Z,101
2023-03-14T14:48:23.000Z,112
2023-03-14T14:49:40.111Z,106
2023-03-14T14:50:56.336Z,101
2023-03-14T14:52:12.568Z,101
2023-03-14T14:53:28.000Z,95
2023-03-14T14:54:45.016Z,95
2023-03-14T14:56:01.000Z,84
2023-03-14T14:57:17.494Z,78
2023-03-14T14:58:33.000Z,73
2023-03-14T14:59:49.000Z,73
2023-03-14T15:01:05.000Z,73
2023-03-14T15:02:21.000Z,90
2023-03-14T15:03:37.000Z,95
2023-03-14T15:04:53.905Z,101
2023-03-14T15:06:09.000Z,106
2023-03-14T15:07:26.000Z,112
2023-03-14T15:08:42.000Z,118
2023-03-14T15:09:58.000Z,118
2023-03-14T15:11:15.073Z,118
2023-03-14T15:12:31.305Z,101
2023-03-14T15:13:47.000Z,95
2023-03-14T15:15:03.000Z,101
2023-03-14T15:16:19.000Z,106
2023-03-14T15:17:36.254Z,112
2023-03-14T15:18:51.000Z,118
2023-03-14T15:20:07.000Z,118
2023-03-14T15:21:23.000Z,118
2023-03-14T15:22:39.000Z,118
2023-03-14T15:23:56.000Z,118
2023-03-14T15:25:12.000Z,112
2023-03-14T15:26:28.000Z,95
2023-03-14T15:27:44.000Z,95
2023-03-14T15:29:00.396Z,101
2023-03-14T15:30:15.000Z,95
2023-03-14T15:31:31.000Z,95
2023-03-14T15:32:47.000Z,90
2023-03-14T15:34:04.000Z,84
2023-03-14T15:35:19.000Z,90
2023-03-14T15:36:34.000Z,90
2023-03-14T15:37:51.089Z,84
2023-03-14T15:39:07.000Z,78
2023-03-14T15:40:23.000Z,67
2023-03-14T15:41:39.000Z,61
2023-03-14T15:42:55.000Z,56
2023-03-14T15:44:12.000Z,50
2023-03-14T15:45:28.000Z,50
2023-03-14T15:46:44.000Z,45
2023-03-14T15:48:00.000Z,45
2023-03-14T15:49:16.000Z,39
2023-03-14T15:50:33.428Z,39
2023-03-14T15:51:49.855Z,39
2023-03-14T15:53:04.000Z,33
2023-03-14T15:54:20.000Z,33
2023-03-14T15:55:37.000Z,33
2023-03-14T15:56:53.000Z,33
2023-03-14T15:58:09.000Z,45
2023-03-14T15:59:25.000Z,50
2023-03-14T16:00:42.000Z,50
2023-03-14T16:01:57.000Z,56
2023-03-14T16:03:12.000Z,56
2023-03-14T16:04:28.000Z,56
2023-03-14T16:05:45.000Z,61
2023-03-14T16:07:01.518Z,67
2023-03-14T16:08:17.000Z,73
2023-03-14T16:09:33.000Z,78
2023-03-14T16:10:49.000Z,78
2023-03-14T16:12:05.000Z,78
2023-03-14T16:13:20.000Z,73
2023-03-14T16:14:35.000Z,73
2023-03-14T16:15:51.000Z,67
2023-03-14T16:17:08.000Z,61
2023-03-14T16:18:24.000Z,61
2023-03-14T16:19:40.000Z,56
2023-03-14T16:20:56.000Z,56
2023-03-14T16:22:13.000Z,56
2023-03-14T16:23:29.000Z,56
2023-03-14T16:24:45.000Z,56
2023-03-14T16:26:01.000Z,56
2023-03-14T16:27:18.000Z,50
2023-03-14T16:28:34.000Z,45
2023-03-14T16:29:50.000Z,45
2023-03-14T16:31:05.000Z,39
2023-03-14T16:32:22.000Z,39
2023-03-14T16:33:38.501Z,39
2023-03-14T16:34:54.000Z,39
2023-03-14T16:36:10.000Z,33
2023-03-14T16:37:26.000Z,33
2023-03-14T16:38:42.000Z,33
2023-03-14T16:39:57.000Z,33
2023-03-14T16:41:13.000Z,33
2023-03-14T16:42:29.000Z,33
2023-03-14T16:43:46.000Z,33
2023-03-14T16:45:02.626Z,33
2023-03-14T16:46:18.859Z,28
2023-03-14T16:47:34.000Z,28
2023-03-14T16:48:51.000Z,28
2023-03-14T16:50:07.000Z,28
2023-03-14T16:51:23.000Z,28
2023-03-14T16:52:39.000Z,22
2023-03-14T16:53:56.000Z,22
2023-03-14T16:55:12.000Z,22
2023-03-14T16:56:27.000Z,22
2023-03-14T16:57:43.000Z,16
2023-03-14T16:58:59.000Z,16
2023-03-14T17:00:16.000Z,16
2023-03-14T17:01:32.000Z,11
2023-03-14T17:02:48.000Z,11
2023-03-14T17:04:04.000Z,11
2023-03-14T17:05:21.000Z,11
2023-03-14T17:06:37.000Z,11
2023-03-14T17:07:53.000Z,11
2023-03-14T17:09:09.000Z,11
2023-03-14T17:10:26.000Z,11
2023-03-14T17:11:42.000Z,11
2023-03-14T17:12:57.000Z,11
2023-03-14T17:14:13.000Z,5
2023-03-14T17:15:30.000Z,5
2023-03-14T17:16:46.000Z,5
2023-03-14T17:18:02.000Z,5
2023-03-14T17:19:18.000Z,5
2023-03-14T17:20:34.000Z,5
2023-03-14T17:21:51.000Z,5
2023-03-14T17:24:23.000Z,0
2023-03-14T17:25:39.000Z,0
2023-03-14T17:26:56.000Z,0
2023-03-14T17:28:12.000Z,0
2023-03-14T17:29:27.000Z,0
2023-03-14T17:30:43.000Z,0
2023-03-14T17:32:00.000Z,0
2023-03-14T17:33:16.000Z,0
2023-03-14T17:34:32.000Z,0
2023-03-14T17:37:05.000Z,0
2023-03-14T17:38:21.000Z,0
2023-03-14T17:39:37.726Z,0
2023-03-14T17:40:53.000Z,0
2023-03-14T17:42:09.000Z,0
2023-03-14T17:43:26.000Z,0
2023-03-14T17:44:42.000Z,0
2023-03-14T17:45:57.000Z,0
2023-03-14T17:47:13.000Z,0
2023-03-14T17:48:30.000Z,0
2023-03-14T17:49:46.000Z,0
2023-03-14T17:51:02.000Z,0
2023-03-14T17:52:18.000Z,0
2023-03-14T17:53:35.000Z,0
2023-03-14T17:54:51.522Z,0
2023-03-14T17:56:07.000Z,0
2023-03-14T17:57:23.000Z,0
2023-03-14T17:58:40.000Z,0
2023-03-14T17:59:56.000Z,0
2023-03-14T18:01:12.000Z,0
2023-03-14T18:02:27.000Z,0
2023-03-14T18:03:44.000Z,0
2023-03-14T18:05:00.000Z,0
2023-03-14T18:06:16.000Z,0
2023-03-14T18:07:33.000Z,0
2023-03-14T18:08:49.000Z,0
2023-03-14T18:10:05.000Z,0
2023-03-14T18:11:22.108Z,0
2023-03-14T18:12:38.000Z,0
2023-03-14T18:13:54.000Z,0
2023-03-14T18:15:10.000Z,0
2023-03-14T18:16:27.000Z,0
2023-03-14T18:17:43.000Z,0
2023-03-14T18:18:58.000Z,0
2023-03-14T18:20:14.000Z,0
2023-03-14T18:21:31.000Z,0
2023-03-14T18:22:47.733Z,0
2023-03-14T18:24:03.000Z,0
2023-03-14T18:25:20.000Z,0
2023-03-14T18:26:36.586Z,0
2023-03-14T18:27:52.000Z,0
2023-03-14T18:29:08.000Z,0
2023-03-14T18:30:25.506Z,0
2023-03-14T18:31:41.000Z,0
2023-03-14T18:32:57.000Z,0